Fellowship — WDF3728 — position and weather

sailwx.info

Track history (hours):
 
Tides and Currents Weather Stations Pressure Air Temp Water Temp Dewpoint Dewpoint Depression Visibility Wind Speed Wind Dir Waves Ship Positions

Fellowship

Owner: International Fellowship Foundation, Inc., Green Cove Springs, FL. More information available from US FCC via Universal Licensing System and Coast Guard Vessel Documentation Center.

Last reported at 2017-Oct-18 00:34 UTC. Time now 2017-Nov-17 17:49 UTC.
Position N 33°27' W 117°42'.
Warning: this ship's position is 30 days out of date.

Length 13 m.

Type: Sailing vessel. MMSI: 367443340.

Date/timePositionNaut miles runAvg speedWind from/ knotsBaromVisibWave heightAir tempDewpointWater temp
2017-Oct-18 00:34N 33°27' W 117°42'1 6.5
2017-Oct-18 00:27N 33°27' W 117°43'3 6.2
2017-Oct-17 23:59N 33°27' W 117°47'3 6.4
2017-Oct-17 23:28N 33°28' W 117°50'4 4.6
2017-Oct-17 22:40N 33°28' W 117°55'8 5.9
2017-Oct-17 21:22N 33°27' W 118°04'2 6.4
2017-Oct-17 20:59N 33°27' W 118°07'8 5.0
2017-Oct-17 19:24N 33°27' W 118°16'15 0.8
2017-Oct-16 23:33N 33°30' W 118°34'1 5.9
2017-Oct-16 23:20N 33°30' W 118°35'2 5.8
2017-Oct-16 22:56N 33°32' W 118°38'6 4.4
2017-Oct-16 21:35N 33°35' W 118°43'1 4.6
2017-Oct-16 21:23N 33°36' W 118°44'3 4.9
2017-Oct-16 20:45N 33°37' W 118°47'1 4.8
2017-Oct-16 20:30N 33°38' W 118°49'2 3.7
2017-Oct-16 19:59N 33°39' W 118°51'2 3.9
2017-Oct-16 19:30N 33°40' W 118°52'3 6.2
2017-Oct-16 19:00N 33°42' W 118°55'3 6.2
2017-Oct-16 18:30N 33°44' W 118°58'3 6.2
2017-Oct-16 17:59N 33°45' W 119°02'3 6.1
2017-Oct-16 17:29N 33°47' W 119°05'3 6.2
2017-Oct-16 17:00N 33°48' W 119°08'4 6.1
2017-Oct-16 16:22N 33°50' W 119°12'2 5.3
2017-Oct-16 16:00N 33°51' W 119°14'3 4.3
2017-Oct-16 15:13N 33°53' W 119°17'1 6.1
2017-Oct-16 15:00N 33°54' W 119°19'6 6.0
2017-Oct-16 13:57N 33°57' W 119°25'3 6.0
2017-Oct-16 13:27N 33°59' W 119°28'4 0.3
2017-Oct-16 00:02N 34°02' W 119°31'0 6.0
2017-Oct-15 23:58N 34°02' W 119°31'2 5.0
2017-Oct-15 23:29N 34°04' W 119°28'2 4.4
2017-Oct-15 22:59N 34°05' W 119°26'2 4.0
2017-Oct-15 22:30N 34°06' W 119°25'3 5.7
2017-Oct-15 22:00N 34°08' W 119°22'3 5.9
2017-Oct-15 21:30N 34°11' W 119°20'3 6.1
2017-Oct-15 20:56N 34°13' W 119°17'  
Track history (hours):
 
Tides and Currents Weather Stations Pressure Air Temp Water Temp Dewpoint Dewpoint Depression Visibility Wind Speed Wind Dir Waves Ship Positions

Fellowship

Owner: International Fellowship Foundation, Inc., Green Cove Springs, FL. More information available from US FCC via Universal Licensing System and Coast Guard Vessel Documentation Center.

Last reported at 2017-Oct-18 00:34 UTC. Time now 2017-Nov-17 17:49 UTC.
Position N 33°27' W 117°42'.
Warning: this ship's position is 30 days out of date.

Length 13 m.

Type: Sailing vessel. MMSI: 367443340.

Date/timePositionNaut miles runAvg speedWind from/ knotsBaromVisibWave heightAir tempDewpointWater temp
2017-Oct-18 00:34N 33°27' W 117°42'1 6.5
2017-Oct-18 00:27N 33°27' W 117°43'3 6.2
2017-Oct-17 23:59N 33°27' W 117°47'3 6.4
2017-Oct-17 23:28N 33°28' W 117°50'4 4.6
2017-Oct-17 22:40N 33°28' W 117°55'8 5.9
2017-Oct-17 21:22N 33°27' W 118°04'2 6.4
2017-Oct-17 20:59N 33°27' W 118°07'8 5.0
2017-Oct-17 19:24N 33°27' W 118°16'15 0.8
2017-Oct-16 23:33N 33°30' W 118°34'1 5.9
2017-Oct-16 23:20N 33°30' W 118°35'2 5.8
2017-Oct-16 22:56N 33°32' W 118°38'6 4.4
2017-Oct-16 21:35N 33°35' W 118°43'1 4.6
2017-Oct-16 21:23N 33°36' W 118°44'3 4.9
2017-Oct-16 20:45N 33°37' W 118°47'1 4.8
2017-Oct-16 20:30N 33°38' W 118°49'2 3.7
2017-Oct-16 19:59N 33°39' W 118°51'2 3.9
2017-Oct-16 19:30N 33°40' W 118°52'3 6.2
2017-Oct-16 19:00N 33°42' W 118°55'3 6.2
2017-Oct-16 18:30N 33°44' W 118°58'3 6.2
2017-Oct-16 17:59N 33°45' W 119°02'3 6.1
2017-Oct-16 17:29N 33°47' W 119°05'3 6.2
2017-Oct-16 17:00N 33°48' W 119°08'4 6.1
2017-Oct-16 16:22N 33°50' W 119°12'2 5.3
2017-Oct-16 16:00N 33°51' W 119°14'3 4.3
2017-Oct-16 15:13N 33°53' W 119°17'1 6.1
2017-Oct-16 15:00N 33°54' W 119°19'6 6.0
2017-Oct-16 13:57N 33°57' W 119°25'3 6.0
2017-Oct-16 13:27N 33°59' W 119°28'4 0.3
2017-Oct-16 00:02N 34°02' W 119°31'0 6.0
2017-Oct-15 23:58N 34°02' W 119°31'2 5.0
2017-Oct-15 23:29N 34°04' W 119°28'2 4.4
2017-Oct-15 22:59N 34°05' W 119°26'2 4.0
2017-Oct-15 22:30N 34°06' W 119°25'3 5.7
2017-Oct-15 22:00N 34°08' W 119°22'3 5.9
2017-Oct-15 21:30N 34°11' W 119°20'3 6.1
2017-Oct-15 20:56N 34°13' W 119°17'  

Dump ship's entire track history